createdAt,value
2019-02-15T00:02:21.693Z,99.90
2019-02-15T00:04:52.809Z,99.90
2019-02-15T00:07:26.089Z,99.90
2019-02-15T00:09:56.419Z,99.90
2019-02-15T00:12:27.334Z,99.90
2019-02-15T00:14:58.028Z,99.90
2019-02-15T00:17:47.461Z,99.90
2019-02-15T00:20:24.268Z,99.90
2019-02-15T00:22:55.124Z,99.90
2019-02-15T00:25:25.591Z,99.90
2019-02-15T00:27:56.236Z,99.90
2019-02-15T00:30:27.374Z,99.90
2019-02-15T00:32:57.638Z,99.90
2019-02-15T00:35:27.918Z,99.90
2019-02-15T00:37:58.450Z,99.90
2019-02-15T00:40:29.085Z,99.90
2019-02-15T00:42:59.808Z,99.90
2019-02-15T00:45:32.526Z,99.90
2019-02-15T00:48:09.322Z,99.90
2019-02-15T00:50:46.605Z,99.90
2019-02-15T00:53:38.855Z,99.90
2019-02-15T00:56:43.195Z,99.90
2019-02-15T00:59:38.894Z,99.90
2019-02-15T01:02:16.182Z,99.90
2019-02-15T01:05:11.494Z,99.90
2019-02-15T01:07:59.170Z,99.90
2019-02-15T01:11:03.549Z,99.90
2019-02-15T01:13:34.514Z,99.90
2019-02-15T01:16:04.890Z,99.90
2019-02-15T01:18:35.150Z,99.90
2019-02-15T01:21:06.289Z,99.90
2019-02-15T01:23:38.889Z,99.90
2019-02-15T01:26:31.335Z,99.90
2019-02-15T01:29:38.502Z,99.90
2019-02-15T01:32:37.120Z,99.90
2019-02-15T01:35:26.457Z,99.90
2019-02-15T01:38:16.646Z,99.90
2019-02-15T01:41:05.941Z,99.90
2019-02-15T01:43:48.054Z,99.90
2019-02-15T01:46:21.953Z,99.90
2019-02-15T01:48:52.689Z,99.90
2019-02-15T01:51:23.035Z,99.90
2019-02-15T01:53:53.359Z,99.90
2019-02-15T01:56:23.725Z,99.90
2019-02-15T01:58:54.499Z,99.90
2019-02-15T02:01:26.837Z,99.90
2019-02-15T02:03:56.977Z,99.90
2019-02-15T02:06:27.299Z,99.90
2019-02-15T02:08:58.019Z,99.90
2019-02-15T02:11:28.360Z,99.90
2019-02-15T02:14:03.046Z,99.90
2019-02-15T02:16:33.302Z,99.90
2019-02-15T02:19:03.789Z,99.90
2019-02-15T02:21:34.147Z,99.90
2019-02-15T02:24:04.430Z,99.90
2019-02-15T02:26:34.911Z,99.90
2019-02-15T02:29:05.230Z,99.90
2019-02-15T02:31:35.493Z,99.90
2019-02-15T02:34:06.317Z,99.90
2019-02-15T02:37:05.029Z,99.90
2019-02-15T02:39:35.355Z,99.90
2019-02-15T02:42:05.653Z,99.90
2019-02-15T02:44:36.994Z,99.90
2019-02-15T02:47:07.455Z,99.90
2019-02-15T02:49:38.425Z,99.90
2019-02-15T02:52:08.787Z,99.90
2019-02-15T02:54:39.270Z,99.90
2019-02-15T02:57:22.243Z,99.90
2019-02-15T02:59:52.586Z,99.90
2019-02-15T03:02:22.716Z,99.90
2019-02-15T03:04:53.063Z,99.90
2019-02-15T03:07:26.384Z,99.90
2019-02-15T03:09:56.803Z,99.90
2019-02-15T03:12:27.486Z,99.90
2019-02-15T03:14:58.052Z,99.90
2019-02-15T03:17:28.417Z,99.90
2019-02-15T03:19:58.763Z,99.90
2019-02-15T03:22:29.237Z,99.90
2019-02-15T03:24:59.543Z,99.90
2019-02-15T03:27:29.862Z,99.90
2019-02-15T03:30:00.712Z,99.90
2019-02-15T03:32:31.173Z,99.90
2019-02-15T03:35:01.503Z,99.90
2019-02-15T03:37:50.775Z,99.90
2019-02-15T03:40:24.648Z,99.90
2019-02-15T03:42:55.404Z,99.90
2019-02-15T03:45:26.099Z,99.90
2019-02-15T03:47:56.254Z,99.90
2019-02-15T03:50:27.051Z,99.90
2019-02-15T03:52:57.328Z,99.90
2019-02-15T03:55:27.514Z,99.90
2019-02-15T03:57:57.870Z,99.90
2019-02-15T04:00:29.102Z,99.90
2019-02-15T04:02:59.369Z,99.90
2019-02-15T04:05:29.814Z,99.90
2019-02-15T04:08:00.495Z,99.90
2019-02-15T04:10:31.193Z,99.90
2019-02-15T04:13:01.632Z,99.90
2019-02-15T04:15:32.143Z,99.90
2019-02-15T04:18:02.839Z,99.90
2019-02-15T04:20:33.701Z,99.90
2019-02-15T04:23:04.225Z,99.90
2019-02-15T04:25:35.031Z,99.90
2019-02-15T04:28:05.819Z,99.90
2019-02-15T04:30:36.104Z,99.90
2019-02-15T04:33:06.153Z,99.90
2019-02-15T04:35:36.692Z,99.90
2019-02-15T04:38:07.031Z,99.90
2019-02-15T04:40:37.337Z,99.90
2019-02-15T04:43:07.671Z,99.90
2019-02-15T04:45:38.421Z,99.90
2019-02-15T04:48:09.123Z,99.90
2019-02-15T04:50:39.505Z,99.90
2019-02-15T04:53:10.280Z,99.90
2019-02-15T04:55:40.805Z,99.90
2019-02-15T04:58:11.297Z,99.90
2019-02-15T05:00:42.485Z,99.90
2019-02-15T05:03:13.061Z,99.90
2019-02-15T05:05:43.649Z,99.90
2019-02-15T05:08:14.295Z,99.90
2019-02-15T05:10:44.908Z,99.90
2019-02-15T05:13:15.174Z,99.90
2019-02-15T05:15:45.497Z,99.90
2019-02-15T05:18:16.193Z,99.90
2019-02-15T05:20:46.827Z,99.90
2019-02-15T05:23:17.010Z,99.90
2019-02-15T05:25:47.291Z,99.90
2019-02-15T05:28:18.051Z,99.90
2019-02-15T05:30:49.412Z,99.90
2019-02-15T05:33:19.724Z,99.90
2019-02-15T05:35:50.418Z,99.90
2019-02-15T05:38:20.578Z,99.90
2019-02-15T05:40:51.018Z,99.90
2019-02-15T05:43:22.150Z,99.90
2019-02-15T05:45:52.557Z,99.90
2019-02-15T05:48:22.890Z,99.90
2019-02-15T05:50:53.668Z,99.90
2019-02-15T05:53:24.343Z,99.90
2019-02-15T05:55:54.663Z,99.90
2019-02-15T05:58:25.430Z,99.90
2019-02-15T06:00:55.726Z,99.90
2019-02-15T06:03:26.055Z,99.90
2019-02-15T06:05:58.112Z,99.90
2019-02-15T06:08:28.608Z,99.90
2019-02-15T06:11:06.447Z,99.90
2019-02-15T06:13:37.483Z,99.90
2019-02-15T06:16:07.832Z,99.90
2019-02-15T06:18:39.065Z,99.90
2019-02-15T06:21:09.273Z,99.90
2019-02-15T06:23:42.243Z,99.90
2019-02-15T06:26:12.735Z,99.90
2019-02-15T06:28:43.072Z,99.90
2019-02-15T06:31:18.440Z,99.90
2019-02-15T06:33:49.018Z,99.90
2019-02-15T06:36:19.360Z,99.90
2019-02-15T06:38:49.694Z,99.90
2019-02-15T06:41:20.263Z,99.90
2019-02-15T06:43:51.889Z,99.90
2019-02-15T06:46:22.466Z,99.90
2019-02-15T06:48:52.894Z,99.90
2019-02-15T06:51:23.186Z,99.90
2019-02-15T06:53:54.084Z,99.90
2019-02-15T06:56:24.198Z,99.90
2019-02-15T06:59:29.003Z,99.90
2019-02-15T07:02:21.552Z,99.90
2019-02-15T07:05:01.272Z,99.90
2019-02-15T07:07:31.685Z,99.90
2019-02-15T07:10:01.842Z,99.90
2019-02-15T07:12:32.096Z,99.90
2019-02-15T07:15:02.526Z,99.90
2019-02-15T07:17:33.118Z,99.90
2019-02-15T07:20:03.493Z,99.90
2019-02-15T07:22:33.713Z,99.90
2019-02-15T07:25:03.824Z,99.90
2019-02-15T07:27:34.270Z,99.90
2019-02-15T07:30:04.957Z,99.90
2019-02-15T07:32:38.001Z,99.90
2019-02-15T07:35:08.575Z,99.90
2019-02-15T07:37:38.826Z,99.90
2019-02-15T07:40:15.651Z,99.90
2019-02-15T07:42:46.052Z,99.90
2019-02-15T07:45:18.074Z,99.90
2019-02-15T07:47:50.988Z,99.90
2019-02-15T07:50:23.440Z,99.90
2019-02-15T07:52:53.628Z,99.90
2019-02-15T07:55:24.058Z,99.90
2019-02-15T07:57:54.494Z,99.90
2019-02-15T08:00:27.359Z,99.90
2019-02-15T08:02:58.111Z,99.90
2019-02-15T08:05:28.565Z,99.90
2019-02-15T08:07:58.793Z,99.90
2019-02-15T08:10:29.723Z,99.90
2019-02-15T08:13:02.657Z,99.90
2019-02-15T08:15:36.349Z,99.90
2019-02-15T08:18:05.383Z,99.90
2019-02-15T08:20:35.941Z,99.90
2019-02-15T08:23:09.064Z,99.90
2019-02-15T08:25:46.833Z,99.90
2019-02-15T08:28:17.482Z,99.90
2019-02-15T08:30:48.062Z,99.90
2019-02-15T08:33:22.572Z,99.90
2019-02-15T08:35:53.120Z,99.90
2019-02-15T08:38:27.857Z,99.90
2019-02-15T08:41:00.934Z,99.90
2019-02-15T08:43:38.838Z,99.90
2019-02-15T08:46:09.368Z,99.90
2019-02-15T08:48:45.919Z,99.90
2019-02-15T08:51:15.205Z,99.90
2019-02-15T08:53:46.737Z,99.90
2019-02-15T08:56:19.077Z,99.90
2019-02-15T08:58:49.729Z,99.90
2019-02-15T09:01:20.522Z,99.90
2019-02-15T09:03:50.765Z,99.90
2019-02-15T09:06:21.408Z,99.90
2019-02-15T09:08:59.291Z,99.90
2019-02-15T09:11:35.147Z,99.90
2019-02-15T09:14:06.148Z,99.30
2019-02-15T09:16:36.422Z,99.90
2019-02-15T09:19:07.186Z,96.80
2019-02-15T09:21:37.469Z,99.00
2019-02-15T09:24:08.001Z,99.80
2019-02-15T09:26:38.872Z,99.00
2019-02-15T09:29:12.158Z,95.50
2019-02-15T09:31:43.419Z,92.60
2019-02-15T09:34:13.785Z,97.90
2019-02-15T09:36:44.159Z,92.80
2019-02-15T09:39:15.863Z,94.40
2019-02-15T09:41:46.127Z,99.20
2019-02-15T09:44:17.558Z,94.50
2019-02-15T09:46:48.196Z,92.40
2019-02-15T09:49:20.473Z,95.40
2019-02-15T09:51:50.467Z,93.20
2019-02-15T09:54:20.887Z,97.40
2019-02-15T09:56:54.584Z,96.60
2019-02-15T09:59:24.868Z,92.00
2019-02-15T10:01:55.390Z,99.20
2019-02-15T10:04:26.146Z,96.70
2019-02-15T10:07:00.339Z,99.10
2019-02-15T10:09:30.466Z,95.10
2019-02-15T10:12:01.011Z,96.90
2019-02-15T10:14:31.643Z,91.60
2019-02-15T10:17:02.022Z,91.70
2019-02-15T10:19:32.787Z,86.60
2019-02-15T10:22:07.550Z,81.70
2019-02-15T10:24:37.872Z,81.10
2019-02-15T10:27:11.012Z,77.20
2019-02-15T10:29:43.391Z,80.30
2019-02-15T10:32:12.996Z,74.50
2019-02-15T10:34:43.918Z,64.70
2019-02-15T10:37:15.933Z,76.80
2019-02-15T10:39:46.271Z,77.10
2019-02-15T10:42:17.259Z,70.20
2019-02-15T10:44:48.841Z,66.20
2019-02-15T10:47:24.634Z,76.20
2019-02-15T10:49:51.667Z,66.70
2019-02-15T10:52:21.902Z,67.50
2019-02-15T10:54:55.443Z,72.00
2019-02-15T10:57:26.078Z,66.20
2019-02-15T10:59:56.244Z,68.70
2019-02-15T11:02:30.972Z,70.50
2019-02-15T11:05:01.726Z,60.80
2019-02-15T11:07:31.837Z,67.50
2019-02-15T11:10:04.070Z,65.20
2019-02-15T11:12:36.220Z,66.70
2019-02-15T11:15:07.606Z,63.30
2019-02-15T11:17:38.862Z,62.70
2019-02-15T11:20:11.197Z,60.00
2019-02-15T11:22:41.498Z,64.00
2019-02-15T11:25:12.283Z,66.90
2019-02-15T11:27:42.888Z,61.80
2019-02-15T11:30:14.579Z,57.00
2019-02-15T11:32:44.828Z,62.70
2019-02-15T11:35:15.830Z,60.10
2019-02-15T11:37:52.889Z,57.80
2019-02-15T11:40:25.237Z,64.30
2019-02-15T11:43:01.731Z,60.50
2019-02-15T11:45:32.487Z,57.50
2019-02-15T11:48:02.729Z,58.00
2019-02-15T11:50:33.746Z,55.60
2019-02-15T11:53:04.238Z,53.10
2019-02-15T11:55:34.512Z,54.30
2019-02-15T11:58:08.007Z,54.80
2019-02-15T12:00:40.480Z,52.30
2019-02-15T12:03:12.251Z,52.50
2019-02-15T12:05:43.231Z,54.70
2019-02-15T12:08:16.266Z,55.80
2019-02-15T12:10:46.513Z,52.30
2019-02-15T12:13:17.042Z,55.80
2019-02-15T12:15:49.362Z,54.30
2019-02-15T12:18:19.683Z,55.40
2019-02-15T12:20:50.454Z,54.00
2019-02-15T12:23:28.586Z,55.00
2019-02-15T12:26:04.660Z,52.60
2019-02-15T12:28:38.308Z,49.10
2019-02-15T12:31:09.241Z,50.40
2019-02-15T12:33:39.675Z,44.10
2019-02-15T12:36:10.010Z,50.40
2019-02-15T12:38:40.900Z,48.20
2019-02-15T12:41:11.062Z,49.50
2019-02-15T12:43:41.455Z,52.40
2019-02-15T12:46:13.884Z,51.60
2019-02-15T12:48:44.445Z,50.10
2019-02-15T12:51:14.937Z,52.60
2019-02-15T12:53:45.618Z,51.90
2019-02-15T12:56:15.918Z,53.30
2019-02-15T12:58:50.444Z,53.50
2019-02-15T13:01:20.974Z,54.90
2019-02-15T13:03:51.289Z,54.70
2019-02-15T13:06:28.676Z,53.50
2019-02-15T13:08:57.497Z,55.90
2019-02-15T13:11:27.975Z,58.10
2019-02-15T13:13:58.990Z,56.80
2019-02-15T13:16:30.246Z,56.80
2019-02-15T13:19:00.702Z,58.10
2019-02-15T13:21:33.158Z,57.70
2019-02-15T13:24:03.627Z,57.10
2019-02-15T13:26:35.439Z,56.60
2019-02-15T13:29:06.305Z,56.80
2019-02-15T13:31:39.873Z,61.80
2019-02-15T13:34:10.742Z,56.80
2019-02-15T13:36:41.079Z,60.90
2019-02-15T13:39:11.354Z,58.80
2019-02-15T13:41:42.185Z,58.40
2019-02-15T13:44:15.339Z,59.20
2019-02-15T13:46:46.424Z,65.30
2019-02-15T13:49:17.184Z,57.60
2019-02-15T13:51:47.654Z,62.10
2019-02-15T13:54:18.417Z,59.80
2019-02-15T13:56:48.985Z,58.20
2019-02-15T13:59:22.882Z,61.00
2019-02-15T14:01:53.396Z,58.80
2019-02-15T14:04:32.346Z,63.80
2019-02-15T14:07:04.035Z,61.60
2019-02-15T14:09:35.696Z,60.30
2019-02-15T14:12:10.134Z,62.80
2019-02-15T14:14:40.625Z,56.20
2019-02-15T14:17:10.974Z,58.80
2019-02-15T14:19:41.968Z,56.60
2019-02-15T14:22:12.521Z,56.60
2019-02-15T14:24:49.107Z,58.80
2019-02-15T14:27:19.466Z,58.90
2019-02-15T14:29:49.778Z,57.30
2019-02-15T14:32:20.356Z,56.20
2019-02-15T14:34:56.911Z,57.70
2019-02-15T14:37:27.752Z,58.80
2019-02-15T14:39:58.351Z,57.90
2019-02-15T14:42:28.761Z,60.00
2019-02-15T14:44:59.451Z,58.80
2019-02-15T14:47:29.858Z,62.50
2019-02-15T14:50:09.358Z,62.60
2019-02-15T14:52:40.937Z,63.20
2019-02-15T14:55:14.490Z,64.30
2019-02-15T14:57:47.461Z,65.60
2019-02-15T15:00:19.190Z,65.70
2019-02-15T15:02:50.841Z,66.30
2019-02-15T15:05:22.759Z,68.90
2019-02-15T15:07:58.989Z,68.40
2019-02-15T15:10:29.450Z,70.00
2019-02-15T15:13:00.158Z,68.40
2019-02-15T15:15:30.785Z,70.60
2019-02-15T15:18:10.813Z,74.10
2019-02-15T15:20:32.803Z,70.70
2019-02-15T15:23:03.295Z,71.90
2019-02-15T15:25:36.416Z,78.40
2019-02-15T15:28:07.490Z,71.50
2019-02-15T15:30:39.368Z,72.30
2019-02-15T15:33:10.166Z,71.90
2019-02-15T15:35:40.544Z,72.90
2019-02-15T15:38:10.753Z,73.70
2019-02-15T15:40:41.107Z,73.70
2019-02-15T15:43:12.643Z,76.50
2019-02-15T15:45:42.876Z,76.40
2019-02-15T15:48:22.184Z,77.40
2019-02-15T15:50:45.484Z,80.00
2019-02-15T15:53:15.837Z,86.50
2019-02-15T15:55:46.415Z,90.00
2019-02-15T15:58:16.967Z,91.40
2019-02-15T16:00:49.866Z,93.20
2019-02-15T16:03:22.334Z,93.50
2019-02-15T16:05:56.740Z,94.30
2019-02-15T16:08:27.169Z,94.70
2019-02-15T16:10:57.354Z,95.50
2019-02-15T16:13:27.854Z,96.10
2019-02-15T16:16:01.265Z,96.90
2019-02-15T16:18:34.788Z,97.20
2019-02-15T16:21:03.693Z,98.10
2019-02-15T16:23:34.345Z,98.80
2019-02-15T16:26:04.881Z,99.10
2019-02-15T16:28:34.923Z,99.30
2019-02-15T16:31:05.411Z,99.90
2019-02-15T16:33:35.659Z,99.90
2019-02-15T16:36:06.054Z,99.90
2019-02-15T16:38:39.807Z,99.90
2019-02-15T16:41:13.359Z,99.90
2019-02-15T16:43:43.753Z,99.90
2019-02-15T16:46:16.792Z,99.90
2019-02-15T16:48:50.329Z,99.90
2019-02-15T16:51:22.540Z,99.90
2019-02-15T16:53:53.602Z,99.90
2019-02-15T16:56:26.669Z,99.90
2019-02-15T16:58:58.913Z,99.90
2019-02-15T17:01:30.894Z,99.90
2019-02-15T17:04:02.343Z,99.90
2019-02-15T17:06:32.675Z,99.90
2019-02-15T17:09:16.611Z,99.90
2019-02-15T17:11:48.834Z,99.90
2019-02-15T17:14:19.314Z,99.90
2019-02-15T17:16:52.826Z,99.90
2019-02-15T17:19:24.749Z,99.90
2019-02-15T17:21:56.985Z,99.90
2019-02-15T17:24:30.341Z,99.90
2019-02-15T17:27:03.488Z,99.90
2019-02-15T17:29:34.149Z,99.90
2019-02-15T17:32:04.584Z,99.90
2019-02-15T17:34:42.448Z,99.90
2019-02-15T17:37:13.798Z,99.90
2019-02-15T17:39:47.197Z,99.90
2019-02-15T17:42:17.984Z,99.90
2019-02-15T17:44:50.354Z,99.90
2019-02-15T17:47:24.915Z,99.90
2019-02-15T17:49:55.880Z,99.90
2019-02-15T17:52:31.606Z,99.90
2019-02-15T17:55:02.448Z,99.90
2019-02-15T17:57:36.942Z,99.90
2019-02-15T18:00:08.011Z,99.90
2019-02-15T18:02:40.197Z,99.90
2019-02-15T18:05:17.388Z,99.90
2019-02-15T18:07:51.946Z,99.90
2019-02-15T18:10:22.448Z,99.90
2019-02-15T18:12:53.663Z,99.90
2019-02-15T18:15:28.725Z,99.90
2019-02-15T18:18:03.483Z,99.90
2019-02-15T18:20:33.830Z,99.90
2019-02-15T18:23:04.543Z,99.90
2019-02-15T18:25:35.235Z,99.90
2019-02-15T18:28:05.899Z,99.90
2019-02-15T18:30:36.031Z,99.90
2019-02-15T18:33:06.454Z,99.90
2019-02-15T18:35:39.431Z,99.90
2019-02-15T18:38:10.159Z,99.90
2019-02-15T18:40:41.147Z,99.90
2019-02-15T18:43:13.006Z,99.90
2019-02-15T18:45:49.720Z,99.90
2019-02-15T18:48:31.342Z,99.90
2019-02-15T18:51:07.294Z,99.90
2019-02-15T18:53:37.671Z,99.90
2019-02-15T18:56:07.989Z,99.90
2019-02-15T18:58:38.453Z,99.90
2019-02-15T19:01:09.222Z,99.90
2019-02-15T19:03:39.826Z,99.90
2019-02-15T19:06:10.454Z,99.90
2019-02-15T19:08:41.286Z,99.90
2019-02-15T19:11:11.913Z,99.90
2019-02-15T19:13:42.953Z,99.90
2019-02-15T19:16:13.445Z,99.90
2019-02-15T19:18:43.831Z,99.90
2019-02-15T19:21:18.144Z,99.90
2019-02-15T19:23:50.441Z,99.90
2019-02-15T19:26:22.045Z,99.90
2019-02-15T19:28:56.279Z,99.90
2019-02-15T19:31:27.413Z,99.90
2019-02-15T19:34:01.522Z,99.90
2019-02-15T19:36:32.154Z,99.90
2019-02-15T19:39:06.685Z,99.90
2019-02-15T19:41:37.601Z,99.90
2019-02-15T19:44:08.265Z,99.90
2019-02-15T19:46:38.783Z,99.90
2019-02-15T19:49:15.591Z,99.90
2019-02-15T19:51:46.406Z,99.90
2019-02-15T19:54:17.501Z,99.90
2019-02-15T19:56:48.596Z,99.90
2019-02-15T19:59:18.951Z,99.90
2019-02-15T20:01:49.354Z,99.90
2019-02-15T20:04:35.759Z,99.90
2019-02-15T20:07:06.303Z,99.90
2019-02-15T20:09:36.762Z,99.90
2019-02-15T20:12:07.101Z,99.90
2019-02-15T20:14:37.871Z,99.90
2019-02-15T20:17:09.701Z,99.90
2019-02-15T20:19:48.247Z,99.90
2019-02-15T20:22:14.720Z,99.90
2019-02-15T20:24:47.510Z,99.90
2019-02-15T20:27:19.728Z,99.90
2019-02-15T20:29:50.292Z,99.90
2019-02-15T20:32:20.857Z,99.90
2019-02-15T20:34:51.191Z,99.90
2019-02-15T20:37:23.825Z,99.90
2019-02-15T20:39:57.895Z,99.90
2019-02-15T20:42:34.579Z,99.90
2019-02-15T20:45:13.961Z,99.90
2019-02-15T20:47:44.318Z,99.90
2019-02-15T20:50:14.722Z,99.90
2019-02-15T20:52:45.226Z,99.90
2019-02-15T20:55:17.347Z,99.90
2019-02-15T20:57:50.246Z,99.90
2019-02-15T21:00:22.889Z,99.90
2019-02-15T21:02:53.160Z,99.90
2019-02-15T21:05:26.785Z,99.90
2019-02-15T21:07:58.010Z,99.90
2019-02-15T21:10:28.281Z,99.90
2019-02-15T21:13:01.878Z,99.90
2019-02-15T21:15:33.625Z,99.90
2019-02-15T21:18:10.434Z,99.90
2019-02-15T21:20:42.373Z,99.90
2019-02-15T21:23:15.385Z,99.90
2019-02-15T21:25:47.212Z,99.90
2019-02-15T21:28:22.126Z,99.90
2019-02-15T21:30:52.733Z,99.90
2019-02-15T21:33:23.404Z,99.90
2019-02-15T21:35:56.704Z,99.90
2019-02-15T21:38:30.283Z,99.90
2019-02-15T21:41:01.523Z,99.90
2019-02-15T21:43:33.117Z,99.90
2019-02-15T21:46:05.100Z,99.90
2019-02-15T21:48:35.681Z,99.90
2019-02-15T21:51:06.228Z,99.90
2019-02-15T21:53:36.650Z,99.90
2019-02-15T21:56:09.413Z,99.90
2019-02-15T21:58:39.697Z,99.90
2019-02-15T22:01:11.332Z,99.90
2019-02-15T22:03:43.796Z,99.90
2019-02-15T22:06:14.121Z,99.90
2019-02-15T22:08:46.051Z,99.90
2019-02-15T22:11:18.043Z,99.90
2019-02-15T22:13:48.592Z,99.90
2019-02-15T22:16:19.227Z,99.90
2019-02-15T22:18:49.548Z,99.90
2019-02-15T22:21:21.135Z,99.90
2019-02-15T22:23:51.414Z,99.90
2019-02-15T22:26:25.046Z,99.90
2019-02-15T22:28:57.504Z,99.90
2019-02-15T22:31:27.912Z,99.90
2019-02-15T22:33:58.537Z,99.90
2019-02-15T22:36:30.186Z,99.90
2019-02-15T22:39:03.096Z,99.90
2019-02-15T22:41:33.783Z,99.90
2019-02-15T22:44:12.057Z,99.90
2019-02-15T22:46:42.323Z,99.90
2019-02-15T22:49:15.069Z,99.90
2019-02-15T22:51:48.236Z,99.90
2019-02-15T22:54:19.230Z,99.90
2019-02-15T22:56:54.926Z,99.90
2019-02-15T22:59:25.607Z,99.90
2019-02-15T23:02:04.455Z,99.90
2019-02-15T23:04:37.797Z,99.90
2019-02-15T23:07:08.122Z,99.90
2019-02-15T23:09:42.738Z,99.90
2019-02-15T23:12:14.637Z,99.90
2019-02-15T23:14:53.057Z,99.90
2019-02-15T23:17:26.755Z,99.90
2019-02-15T23:19:59.506Z,99.90
2019-02-15T23:22:29.750Z,99.90
2019-02-15T23:25:00.343Z,99.90
2019-02-15T23:27:31.651Z,99.90
2019-02-15T23:30:07.374Z,99.90
2019-02-15T23:32:39.882Z,99.90
2019-02-15T23:35:10.079Z,99.90
2019-02-15T23:37:40.242Z,99.90
2019-02-15T23:40:11.190Z,99.90
2019-02-15T23:42:41.618Z,99.90
2019-02-15T23:45:12.826Z,99.90
2019-02-15T23:47:43.344Z,99.90
2019-02-15T23:50:16.683Z,99.90
2019-02-15T23:52:47.618Z,99.90
2019-02-15T23:55:17.818Z,99.90
2019-02-15T23:57:48.122Z,99.90
